sensor_id;sensor_type;location;lat;lon;timestamp;temperature;humidity
62809;DHT22;48848;39.002;-94.584;2023-03-05T00:01:28;20.80;42.10
62809;DHT22;48848;39.002;-94.584;2023-03-05T00:03:54;20.80;42.20
62809;DHT22;48848;39.002;-94.584;2023-03-05T00:06:21;20.80;42.00
62809;DHT22;48848;39.002;-94.584;2023-03-05T00:08:48;20.80;42.30
62809;DHT22;48848;39.002;-94.584;2023-03-05T00:11:14;20.80;41.90
62809;DHT22;48848;39.002;-94.584;2023-03-05T00:13:40;20.80;41.70
62809;DHT22;48848;39.002;-94.584;2023-03-05T00:16:07;20.80;42.10
62809;DHT22;48848;39.002;-94.584;2023-03-05T00:18:34;20.80;41.60
62809;DHT22;48848;39.002;-94.584;2023-03-05T00:21:00;20.90;43.60
62809;DHT22;48848;39.002;-94.584;2023-03-05T00:23:26;20.90;41.90
62809;DHT22;48848;39.002;-94.584;2023-03-05T00:25:52;20.90;42.00
62809;DHT22;48848;39.002;-94.584;2023-03-05T00:28:18;20.80;41.70
62809;DHT22;48848;39.002;-94.584;2023-03-05T00:30:44;20.90;42.40
62809;DHT22;48848;39.002;-94.584;2023-03-05T00:33:10;20.80;42.00
62809;DHT22;48848;39.002;-94.584;2023-03-05T00:35:43;20.80;42.00
62809;DHT22;48848;39.002;-94.584;2023-03-05T00:38:10;20.90;42.10
62809;DHT22;48848;39.002;-94.584;2023-03-05T00:40:37;20.90;41.60
62809;DHT22;48848;39.002;-94.584;2023-03-05T00:43:03;20.90;41.80
62809;DHT22;48848;39.002;-94.584;2023-03-05T00:45:29;20.90;41.70
62809;DHT22;48848;39.002;-94.584;2023-03-05T00:47:54;20.90;41.70
62809;DHT22;48848;39.002;-94.584;2023-03-05T00:50:20;20.90;41.70
62809;DHT22;48848;39.002;-94.584;2023-03-05T00:52:46;20.90;41.70
62809;DHT22;48848;39.002;-94.584;2023-03-05T00:55:12;20.80;41.60
62809;DHT22;48848;39.002;-94.584;2023-03-05T00:57:38;20.80;41.70
62809;DHT22;48848;39.002;-94.584;2023-03-05T01:00:04;20.80;41.80
62809;DHT22;48848;39.002;-94.584;2023-03-05T01:02:30;20.90;42.20
62809;DHT22;48848;39.002;-94.584;2023-03-05T01:04:56;20.80;41.70
62809;DHT22;48848;39.002;-94.584;2023-03-05T01:07:22;20.80;41.90
62809;DHT22;48848;39.002;-94.584;2023-03-05T01:09:47;20.80;41.90
62809;DHT22;48848;39.002;-94.584;2023-03-05T01:12:13;20.80;42.10
62809;DHT22;48848;39.002;-94.584;2023-03-05T01:14:39;20.80;41.90
62809;DHT22;48848;39.002;-94.584;2023-03-05T01:17:06;20.80;41.80
62809;DHT22;48848;39.002;-94.584;2023-03-05T01:19:31;20.80;42.20
62809;DHT22;48848;39.002;-94.584;2023-03-05T01:21:57;20.80;41.80
62809;DHT22;48848;39.002;-94.584;2023-03-05T01:24:23;20.80;41.70
62809;DHT22;48848;39.002;-94.584;2023-03-05T01:26:49;20.80;41.50
62809;DHT22;48848;39.002;-94.584;2023-03-05T01:29:16;20.80;42.00
62809;DHT22;48848;39.002;-94.584;2023-03-05T01:31:42;20.80;42.30
62809;DHT22;48848;39.002;-94.584;2023-03-05T01:34:08;20.80;42.00
62809;DHT22;48848;39.002;-94.584;2023-03-05T01:36:33;20.70;41.70
62809;DHT22;48848;39.002;-94.584;2023-03-05T01:38:59;20.70;41.70
62809;DHT22;48848;39.002;-94.584;2023-03-05T01:41:25;20.70;41.60
62809;DHT22;48848;39.002;-94.584;2023-03-05T01:43:51;20.70;42.20
62809;DHT22;48848;39.002;-94.584;2023-03-05T01:48:46;20.70;42.00
62809;DHT22;48848;39.002;-94.584;2023-03-05T01:51:14;20.70;42.10
62809;DHT22;48848;39.002;-94.584;2023-03-05T01:53:40;20.70;41.60
62809;DHT22;48848;39.002;-94.584;2023-03-05T01:56:06;20.70;41.80
62809;DHT22;48848;39.002;-94.584;2023-03-05T01:58:33;20.70;42.20
62809;DHT22;48848;39.002;-94.584;2023-03-05T02:00:59;20.70;41.70
62809;DHT22;48848;39.002;-94.584;2023-03-05T02:03:26;20.70;42.50
62809;DHT22;48848;39.002;-94.584;2023-03-05T02:05:52;20.70;41.80
62809;DHT22;48848;39.002;-94.584;2023-03-05T02:08:19;20.80;41.50
62809;DHT22;48848;39.002;-94.584;2023-03-05T02:10:49;20.90;41.30
62809;DHT22;48848;39.002;-94.584;2023-03-05T02:13:17;21.10;40.90
62809;DHT22;48848;39.002;-94.584;2023-03-05T02:15:43;21.10;40.80
62809;DHT22;48848;39.002;-94.584;2023-03-05T02:18:11;21.20;41.40
62809;DHT22;48848;39.002;-94.584;2023-03-05T02:20:43;21.10;41.30
62809;DHT22;48848;39.002;-94.584;2023-03-05T02:23:09;21.10;40.50
62809;DHT22;48848;39.002;-94.584;2023-03-05T02:25:34;21.90;40.40
62809;DHT22;48848;39.002;-94.584;2023-03-05T02:28:02;23.00;39.10
62809;DHT22;48848;39.002;-94.584;2023-03-05T02:30:30;24.00;39.00
62809;DHT22;48848;39.002;-94.584;2023-03-05T02:32:57;24.90;36.40
62809;DHT22;48848;39.002;-94.584;2023-03-05T02:35:23;25.70;35.60
62809;DHT22;48848;39.002;-94.584;2023-03-05T02:37:49;24.80;35.40
62809;DHT22;48848;39.002;-94.584;2023-03-05T02:40:15;23.80;38.50
62809;DHT22;48848;39.002;-94.584;2023-03-05T02:42:41;23.10;38.30
62809;DHT22;48848;39.002;-94.584;2023-03-05T02:45:07;22.70;38.70
62809;DHT22;48848;39.002;-94.584;2023-03-05T02:47:34;22.60;40.20
62809;DHT22;48848;39.002;-94.584;2023-03-05T02:50:00;22.40;40.00
62809;DHT22;48848;39.002;-94.584;2023-03-05T02:52:26;22.30;40.20
62809;DHT22;48848;39.002;-94.584;2023-03-05T02:54:53;22.20;40.20
62809;DHT22;48848;39.002;-94.584;2023-03-05T02:57:19;22.10;41.00
62809;DHT22;48848;39.002;-94.584;2023-03-05T02:59:45;22.00;40.70
62809;DHT22;48848;39.002;-94.584;2023-03-05T03:02:14;22.00;40.60
62809;DHT22;48848;39.002;-94.584;2023-03-05T03:04:42;22.10;41.10
62809;DHT22;48848;39.002;-94.584;2023-03-05T03:07:08;22.00;41.30
62809;DHT22;48848;39.002;-94.584;2023-03-05T03:09:34;21.80;41.60
62809;DHT22;48848;39.002;-94.584;2023-03-05T03:12:01;21.80;41.60
62809;DHT22;48848;39.002;-94.584;2023-03-05T03:14:29;21.90;41.80
62809;DHT22;48848;39.002;-94.584;2023-03-05T03:16:55;21.90;41.60
62809;DHT22;48848;39.002;-94.584;2023-03-05T03:19:22;21.80;41.00
62809;DHT22;48848;39.002;-94.584;2023-03-05T03:21:48;21.80;41.00
62809;DHT22;48848;39.002;-94.584;2023-03-05T03:24:14;21.70;41.40
62809;DHT22;48848;39.002;-94.584;2023-03-05T03:26:40;21.60;41.10
62809;DHT22;48848;39.002;-94.584;2023-03-05T03:29:06;21.50;41.10
62809;DHT22;48848;39.002;-94.584;2023-03-05T03:31:32;21.50;41.90
62809;DHT22;48848;39.002;-94.584;2023-03-05T03:33:58;21.40;39.90
62809;DHT22;48848;39.002;-94.584;2023-03-05T03:36:24;21.30;41.30
62809;DHT22;48848;39.002;-94.584;2023-03-05T03:38:51;21.20;41.10
62809;DHT22;48848;39.002;-94.584;2023-03-05T03:41:17;21.20;42.10
62809;DHT22;48848;39.002;-94.584;2023-03-05T03:43:43;21.20;42.70
62809;DHT22;48848;39.002;-94.584;2023-03-05T03:46:09;21.20;41.00
62809;DHT22;48848;39.002;-94.584;2023-03-05T03:48:35;21.30;40.70
62809;DHT22;48848;39.002;-94.584;2023-03-05T03:51:04;21.30;40.80
62809;DHT22;48848;39.002;-94.584;2023-03-05T03:53:31;21.20;41.80
62809;DHT22;48848;39.002;-94.584;2023-03-05T03:55:57;21.20;40.60
62809;DHT22;48848;39.002;-94.584;2023-03-05T03:58:23;21.20;40.30
62809;DHT22;48848;39.002;-94.584;2023-03-05T04:00:49;21.20;40.90
62809;DHT22;48848;39.002;-94.584;2023-03-05T04:03:14;21.20;40.40
62809;DHT22;48848;39.002;-94.584;2023-03-05T04:05:40;21.10;41.10
62809;DHT22;48848;39.002;-94.584;2023-03-05T04:08:06;21.30;40.80
62809;DHT22;48848;39.002;-94.584;2023-03-05T04:10:39;22.20;42.10
62809;DHT22;48848;39.002;-94.584;2023-03-05T04:13:05;23.20;39.70
62809;DHT22;48848;39.002;-94.584;2023-03-05T04:15:31;24.10;38.30
62809;DHT22;48848;39.002;-94.584;2023-03-05T04:17:57;24.30;37.30
62809;DHT22;48848;39.002;-94.584;2023-03-05T04:20:23;23.00;37.70
62809;DHT22;48848;39.002;-94.584;2023-03-05T04:22:49;22.40;39.40
62809;DHT22;48848;39.002;-94.584;2023-03-05T04:25:15;22.00;40.60
62809;DHT22;48848;39.002;-94.584;2023-03-05T04:27:41;21.90;40.10
62809;DHT22;48848;39.002;-94.584;2023-03-05T04:30:07;21.80;41.10
62809;DHT22;48848;39.002;-94.584;2023-03-05T04:32:34;21.60;42.10
62809;DHT22;48848;39.002;-94.584;2023-03-05T04:34:59;21.50;41.40
62809;DHT22;48848;39.002;-94.584;2023-03-05T04:37:25;21.50;41.70
62809;DHT22;48848;39.002;-94.584;2023-03-05T04:39:51;21.40;41.60
62809;DHT22;48848;39.002;-94.584;2023-03-05T04:42:17;21.40;41.80
62809;DHT22;48848;39.002;-94.584;2023-03-05T04:44:47;21.40;42.00
62809;DHT22;48848;39.002;-94.584;2023-03-05T04:47:14;21.30;41.90
62809;DHT22;48848;39.002;-94.584;2023-03-05T04:49:40;21.20;41.80
62809;DHT22;48848;39.002;-94.584;2023-03-05T04:52:06;21.20;41.60
62809;DHT22;48848;39.002;-94.584;2023-03-05T04:54:32;21.30;41.20
62809;DHT22;48848;39.002;-94.584;2023-03-05T04:56:57;21.30;40.80
62809;DHT22;48848;39.002;-94.584;2023-03-05T04:59:23;21.20;40.90
62809;DHT22;48848;39.002;-94.584;2023-03-05T05:01:49;21.20;40.30
62809;DHT22;48848;39.002;-94.584;2023-03-05T05:04:15;21.30;40.10
62809;DHT22;48848;39.002;-94.584;2023-03-05T05:06:41;21.30;40.00
62809;DHT22;48848;39.002;-94.584;2023-03-05T05:09:07;21.40;40.50
62809;DHT22;48848;39.002;-94.584;2023-03-05T05:11:33;21.40;40.50
62809;DHT22;48848;39.002;-94.584;2023-03-05T05:13:58;21.40;40.20
62809;DHT22;48848;39.002;-94.584;2023-03-05T05:16:24;21.30;40.70
62809;DHT22;48848;39.002;-94.584;2023-03-05T05:18:50;21.30;40.60
62809;DHT22;48848;39.002;-94.584;2023-03-05T05:21:16;21.20;40.40
62809;DHT22;48848;39.002;-94.584;2023-03-05T05:23:43;21.20;40.70
62809;DHT22;48848;39.002;-94.584;2023-03-05T05:26:09;21.10;39.90
62809;DHT22;48848;39.002;-94.584;2023-03-05T05:28:39;21.10;40.00
62809;DHT22;48848;39.002;-94.584;2023-03-05T05:31:08;21.10;40.40
62809;DHT22;48848;39.002;-94.584;2023-03-05T05:33:34;21.10;40.30
62809;DHT22;48848;39.002;-94.584;2023-03-05T05:36:03;21.10;40.20
62809;DHT22;48848;39.002;-94.584;2023-03-05T05:38:29;21.10;40.40
62809;DHT22;48848;39.002;-94.584;2023-03-05T05:41:00;21.10;40.00
62809;DHT22;48848;39.002;-94.584;2023-03-05T05:43:26;21.10;39.50
62809;DHT22;48848;39.002;-94.584;2023-03-05T05:45:52;21.10;40.00
62809;DHT22;48848;39.002;-94.584;2023-03-05T05:48:17;21.00;40.50
62809;DHT22;48848;39.002;-94.584;2023-03-05T05:50:43;21.00;40.50
62809;DHT22;48848;39.002;-94.584;2023-03-05T05:53:09;20.90;40.40
62809;DHT22;48848;39.002;-94.584;2023-03-05T05:55:38;20.90;39.50
62809;DHT22;48848;39.002;-94.584;2023-03-05T05:58:04;20.90;39.70
62809;DHT22;48848;39.002;-94.584;2023-03-05T06:00:30;20.90;39.90
62809;DHT22;48848;39.002;-94.584;2023-03-05T06:02:55;20.80;40.10
62809;DHT22;48848;39.002;-94.584;2023-03-05T06:05:21;20.90;39.90
62809;DHT22;48848;39.002;-94.584;2023-03-05T06:07:47;20.80;40.00
62809;DHT22;48848;39.002;-94.584;2023-03-05T06:10:13;20.90;41.10
62809;DHT22;48848;39.002;-94.584;2023-03-05T06:12:39;20.80;40.20
62809;DHT22;48848;39.002;-94.584;2023-03-05T06:15:05;20.80;39.80
62809;DHT22;48848;39.002;-94.584;2023-03-05T06:17:31;20.80;40.90
62809;DHT22;48848;39.002;-94.584;2023-03-05T06:19:57;20.60;40.70
62809;DHT22;48848;39.002;-94.584;2023-03-05T06:22:23;20.40;40.70
62809;DHT22;48848;39.002;-94.584;2023-03-05T06:24:49;20.30;41.10
62809;DHT22;48848;39.002;-94.584;2023-03-05T06:27:15;20.30;40.40
62809;DHT22;48848;39.002;-94.584;2023-03-05T06:29:41;20.30;40.90
62809;DHT22;48848;39.002;-94.584;2023-03-05T06:32:07;20.20;40.70
62809;DHT22;48848;39.002;-94.584;2023-03-05T06:34:33;20.20;40.70
62809;DHT22;48848;39.002;-94.584;2023-03-05T06:36:59;20.20;40.90
62809;DHT22;48848;39.002;-94.584;2023-03-05T06:39:24;20.20;40.80
62809;DHT22;48848;39.002;-94.584;2023-03-05T06:41:50;20.10;40.80
62809;DHT22;48848;39.002;-94.584;2023-03-05T06:44:16;20.50;40.60
62809;DHT22;48848;39.002;-94.584;2023-03-05T06:46:42;21.30;39.40
62809;DHT22;48848;39.002;-94.584;2023-03-05T06:49:08;21.90;38.50
62809;DHT22;48848;39.002;-94.584;2023-03-05T06:51:36;22.50;37.40
62809;DHT22;48848;39.002;-94.584;2023-03-05T06:54:03;21.60;36.90
62809;DHT22;48848;39.002;-94.584;2023-03-05T06:56:30;21.00;38.00
62809;DHT22;48848;39.002;-94.584;2023-03-05T06:58:56;20.70;38.60
62809;DHT22;48848;39.002;-94.584;2023-03-05T07:01:22;20.60;39.30
62809;DHT22;48848;39.002;-94.584;2023-03-05T07:03:49;20.40;39.70
62809;DHT22;48848;39.002;-94.584;2023-03-05T07:06:15;20.30;40.90
62809;DHT22;48848;39.002;-94.584;2023-03-05T07:08:41;20.20;39.90
62809;DHT22;48848;39.002;-94.584;2023-03-05T07:11:10;20.20;40.00
62809;DHT22;48848;39.002;-94.584;2023-03-05T07:13:36;20.10;40.20
62809;DHT22;48848;39.002;-94.584;2023-03-05T07:16:06;20.00;40.20
62809;DHT22;48848;39.002;-94.584;2023-03-05T07:18:32;19.90;40.40
62809;DHT22;48848;39.002;-94.584;2023-03-05T07:21:05;19.80;40.40
62809;DHT22;48848;39.002;-94.584;2023-03-05T07:23:32;19.80;40.50
62809;DHT22;48848;39.002;-94.584;2023-03-05T07:26:01;19.70;40.60
62809;DHT22;48848;39.002;-94.584;2023-03-05T07:28:28;19.80;41.00
62809;DHT22;48848;39.002;-94.584;2023-03-05T07:30:57;20.70;40.20
62809;DHT22;48848;39.002;-94.584;2023-03-05T07:33:24;21.60;38.90
62809;DHT22;48848;39.002;-94.584;2023-03-05T07:35:50;22.40;37.60
62809;DHT22;48848;39.002;-94.584;2023-03-05T07:38:15;22.20;36.60
62809;DHT22;48848;39.002;-94.584;2023-03-05T07:40:41;21.30;37.40
62809;DHT22;48848;39.002;-94.584;2023-03-05T07:43:07;20.80;38.30
62809;DHT22;48848;39.002;-94.584;2023-03-05T07:45:33;20.50;39.10
62809;DHT22;48848;39.002;-94.584;2023-03-05T07:47:59;20.30;39.80
62809;DHT22;48848;39.002;-94.584;2023-03-05T07:50:25;20.10;40.20
62809;DHT22;48848;39.002;-94.584;2023-03-05T07:52:50;20.00;40.60
62809;DHT22;48848;39.002;-94.584;2023-03-05T07:55:17;19.90;40.70
62809;DHT22;48848;39.002;-94.584;2023-03-05T07:57:43;19.70;40.80
62809;DHT22;48848;39.002;-94.584;2023-03-05T08:00:09;19.70;40.90
62809;DHT22;48848;39.002;-94.584;2023-03-05T08:02:35;19.70;41.10
62809;DHT22;48848;39.002;-94.584;2023-03-05T08:05:01;19.60;41.30
62809;DHT22;48848;39.002;-94.584;2023-03-05T08:07:27;19.50;41.50
62809;DHT22;48848;39.002;-94.584;2023-03-05T08:09:52;19.50;41.40
62809;DHT22;48848;39.002;-94.584;2023-03-05T08:12:18;20.00;41.60
62809;DHT22;48848;39.002;-94.584;2023-03-05T08:14:44;21.30;39.70
62809;DHT22;48848;39.002;-94.584;2023-03-05T08:17:11;22.10;38.30
62809;DHT22;48848;39.002;-94.584;2023-03-05T08:19:37;22.50;37.30
62809;DHT22;48848;39.002;-94.584;2023-03-05T08:22:03;21.40;37.50
62809;DHT22;48848;39.002;-94.584;2023-03-05T08:24:29;20.90;38.40
62809;DHT22;48848;39.002;-94.584;2023-03-05T08:26:55;20.60;39.40
62809;DHT22;48848;39.002;-94.584;2023-03-05T08:29:22;20.30;39.90
62809;DHT22;48848;39.002;-94.584;2023-03-05T08:31:48;20.10;40.50
62809;DHT22;48848;39.002;-94.584;2023-03-05T08:34:14;20.00;40.90
62809;DHT22;48848;39.002;-94.584;2023-03-05T08:36:40;19.90;41.20
62809;DHT22;48848;39.002;-94.584;2023-03-05T08:39:06;19.80;41.30
62809;DHT22;48848;39.002;-94.584;2023-03-05T08:41:33;19.70;41.60
62809;DHT22;48848;39.002;-94.584;2023-03-05T08:43:58;19.60;41.90
62809;DHT22;48848;39.002;-94.584;2023-03-05T08:46:24;19.50;41.90
62809;DHT22;48848;39.002;-94.584;2023-03-05T08:48:50;19.50;42.10
62809;DHT22;48848;39.002;-94.584;2023-03-05T08:51:17;19.80;42.10
62809;DHT22;48848;39.002;-94.584;2023-03-05T08:53:44;20.80;41.10
62809;DHT22;48848;39.002;-94.584;2023-03-05T08:56:10;21.90;38.80
62809;DHT22;48848;39.002;-94.584;2023-03-05T08:58:36;22.60;37.50
62809;DHT22;48848;39.002;-94.584;2023-03-05T09:01:01;22.00;36.80
62809;DHT22;48848;39.002;-94.584;2023-03-05T09:03:28;21.20;38.20
62809;DHT22;48848;39.002;-94.584;2023-03-05T09:05:57;20.70;39.20
62809;DHT22;48848;39.002;-94.584;2023-03-05T09:08:23;20.20;40.20
62809;DHT22;48848;39.002;-94.584;2023-03-05T09:10:49;20.10;40.90
62809;DHT22;48848;39.002;-94.584;2023-03-05T09:13:15;20.00;41.00
62809;DHT22;48848;39.002;-94.584;2023-03-05T09:15:40;19.90;41.30
62809;DHT22;48848;39.002;-94.584;2023-03-05T09:18:06;19.80;41.60
62809;DHT22;48848;39.002;-94.584;2023-03-05T09:20:34;19.70;41.70
62809;DHT22;48848;39.002;-94.584;2023-03-05T09:23:00;19.70;41.80
62809;DHT22;48848;39.002;-94.584;2023-03-05T09:25:26;19.60;42.10
62809;DHT22;48848;39.002;-94.584;2023-03-05T09:27:52;19.50;42.30
62809;DHT22;48848;39.002;-94.584;2023-03-05T09:30:18;19.40;42.40
62809;DHT22;48848;39.002;-94.584;2023-03-05T09:32:44;19.40;42.30
62809;DHT22;48848;39.002;-94.584;2023-03-05T09:35:09;20.10;42.10
62809;DHT22;48848;39.002;-94.584;2023-03-05T09:37:35;21.40;40.00
62809;DHT22;48848;39.002;-94.584;2023-03-05T09:40:02;22.30;38.20
62809;DHT22;48848;39.002;-94.584;2023-03-05T09:42:33;22.30;37.00
62809;DHT22;48848;39.002;-94.584;2023-03-05T09:50:11;20.40;40.40
62809;DHT22;48848;39.002;-94.584;2023-03-05T09:52:43;20.10;41.00
62809;DHT22;48848;39.002;-94.584;2023-03-05T09:55:22;19.90;41.50
62809;DHT22;48848;39.002;-94.584;2023-03-05T09:57:51;19.80;41.60
62809;DHT22;48848;39.002;-94.584;2023-03-05T10:00:25;19.70;42.00
62809;DHT22;48848;39.002;-94.584;2023-03-05T10:02:54;19.60;42.30
62809;DHT22;48848;39.002;-94.584;2023-03-05T10:07:56;19.50;42.60
62809;DHT22;48848;39.002;-94.584;2023-03-05T10:10:28;19.40;42.60
62809;DHT22;48848;39.002;-94.584;2023-03-05T10:13:01;19.30;42.80
62809;DHT22;48848;39.002;-94.584;2023-03-05T10:15:33;19.40;42.70
62809;DHT22;48848;39.002;-94.584;2023-03-05T10:18:04;20.30;42.10
62809;DHT22;48848;39.002;-94.584;2023-03-05T10:25:51;21.60;37.80
62809;DHT22;48848;39.002;-94.584;2023-03-05T10:38:40;19.70;41.80
62809;DHT22;48848;39.002;-94.584;2023-03-05T10:43:51;19.40;42.40
62809;DHT22;48848;39.002;-94.584;2023-03-05T10:46:20;19.40;42.70
62809;DHT22;48848;39.002;-94.584;2023-03-05T10:48:49;19.30;42.60
62809;DHT22;48848;39.002;-94.584;2023-03-05T10:51:19;19.30;42.60
62809;DHT22;48848;39.002;-94.584;2023-03-05T10:53:56;19.40;42.80
62809;DHT22;48848;39.002;-94.584;2023-03-05T10:56:23;20.30;42.20
62809;DHT22;48848;39.002;-94.584;2023-03-05T10:58:50;21.70;39.70
62809;DHT22;48848;39.002;-94.584;2023-03-05T11:01:19;22.40;38.00
62809;DHT22;48848;39.002;-94.584;2023-03-05T11:03:55;21.30;38.10
62809;DHT22;48848;39.002;-94.584;2023-03-05T11:06:32;20.80;39.20
62809;DHT22;48848;39.002;-94.584;2023-03-05T11:09:17;20.30;40.50
62809;DHT22;48848;39.002;-94.584;2023-03-05T11:11:44;19.90;41.20
62809;DHT22;48848;39.002;-94.584;2023-03-05T11:14:26;19.70;41.80
62809;DHT22;48848;39.002;-94.584;2023-03-05T11:16:58;19.60;42.10
62809;DHT22;48848;39.002;-94.584;2023-03-05T11:19:25;19.40;42.50
62809;DHT22;48848;39.002;-94.584;2023-03-05T11:22:04;19.40;42.70
62809;DHT22;48848;39.002;-94.584;2023-03-05T11:24:31;19.30;42.70
62809;DHT22;48848;39.002;-94.584;2023-03-05T11:26:58;19.20;42.70
62809;DHT22;48848;39.002;-94.584;2023-03-05T11:29:30;19.20;42.90
62809;DHT22;48848;39.002;-94.584;2023-03-05T11:32:18;19.10;42.90
62809;DHT22;48848;39.002;-94.584;2023-03-05T11:34:44;19.80;43.10
62809;DHT22;48848;39.002;-94.584;2023-03-05T11:37:18;21.20;40.40
62809;DHT22;48848;39.002;-94.584;2023-03-05T11:39:46;22.20;38.50
62809;DHT22;48848;39.002;-94.584;2023-03-05T11:42:18;21.60;37.80
62809;DHT22;48848;39.002;-94.584;2023-03-05T11:47:23;20.40;40.10
62809;DHT22;48848;39.002;-94.584;2023-03-05T11:49:53;20.00;41.30
62809;DHT22;48848;39.002;-94.584;2023-03-05T11:52:21;19.70;41.60
62809;DHT22;48848;39.002;-94.584;2023-03-05T11:57:19;19.40;42.30
62809;DHT22;48848;39.002;-94.584;2023-03-05T11:59:46;19.30;42.50
62809;DHT22;48848;39.002;-94.584;2023-03-05T12:02:30;19.20;42.80
62809;DHT22;48848;39.002;-94.584;2023-03-05T12:04:56;19.20;42.80
62809;DHT22;48848;39.002;-94.584;2023-03-05T12:07:29;19.10;42.90
62809;DHT22;48848;39.002;-94.584;2023-03-05T12:09:57;19.00;43.20
62809;DHT22;48848;39.002;-94.584;2023-03-05T12:17:36;18.90;43.40
62809;DHT22;48848;39.002;-94.584;2023-03-05T12:20:06;18.90;43.50
62809;DHT22;48848;39.002;-94.584;2023-03-05T12:22:37;18.80;43.50
62809;DHT22;48848;39.002;-94.584;2023-03-05T12:27:48;18.70;44.00
62809;DHT22;48848;39.002;-94.584;2023-03-05T12:32:54;18.60;44.00
62809;DHT22;48848;39.002;-94.584;2023-03-05T12:35:28;18.60;43.90
62809;DHT22;48848;39.002;-94.584;2023-03-05T12:37:55;18.60;44.00
62809;DHT22;48848;39.002;-94.584;2023-03-05T12:40:23;18.60;44.00
62809;DHT22;48848;39.002;-94.584;2023-03-05T12:43:02;18.50;44.00
62809;DHT22;48848;39.002;-94.584;2023-03-05T12:45:39;18.50;43.90
62809;DHT22;48848;39.002;-94.584;2023-03-05T12:55:38;18.40;45.20
62809;DHT22;48848;39.002;-94.584;2023-03-05T13:00:52;18.30;44.30
62809;DHT22;48848;39.002;-94.584;2023-03-05T13:03:28;18.30;44.30
62809;DHT22;48848;39.002;-94.584;2023-03-05T13:05:56;18.30;44.20
62809;DHT22;48848;39.002;-94.584;2023-03-05T13:08:26;18.20;44.40
62809;DHT22;48848;39.002;-94.584;2023-03-05T13:13:25;18.00;45.00
62809;DHT22;48848;39.002;-94.584;2023-03-05T13:15:51;18.10;44.60
62809;DHT22;48848;39.002;-94.584;2023-03-05T13:18:22;18.10;44.50
62809;DHT22;48848;39.002;-94.584;2023-03-05T13:20:58;18.10;44.50
62809;DHT22;48848;39.002;-94.584;2023-03-05T13:23:25;18.10;44.60
62809;DHT22;48848;39.002;-94.584;2023-03-05T13:25:59;18.10;44.60
62809;DHT22;48848;39.002;-94.584;2023-03-05T13:28:25;18.10;44.60
62809;DHT22;48848;39.002;-94.584;2023-03-05T13:30:52;18.00;44.60
62809;DHT22;48848;39.002;-94.584;2023-03-05T13:33:21;18.00;44.50
62809;DHT22;48848;39.002;-94.584;2023-03-05T13:35:47;18.10;44.80
62809;DHT22;48848;39.002;-94.584;2023-03-05T13:38:20;18.70;45.00
62809;DHT22;48848;39.002;-94.584;2023-03-05T13:40:59;20.10;42.40
62809;DHT22;48848;39.002;-94.584;2023-03-05T13:43:25;21.00;40.00
62809;DHT22;48848;39.002;-94.584;2023-03-05T13:45:54;20.30;39.60
62809;DHT22;48848;39.002;-94.584;2023-03-05T13:48:24;19.70;40.50
62809;DHT22;48848;39.002;-94.584;2023-03-05T13:50:56;19.30;41.60
62809;DHT22;48848;39.002;-94.584;2023-03-05T13:53:26;18.90;42.90
62809;DHT22;48848;39.002;-94.584;2023-03-05T13:55:55;18.50;43.10
62809;DHT22;48848;39.002;-94.584;2023-03-05T14:01:12;18.20;43.80
62809;DHT22;48848;39.002;-94.584;2023-03-05T14:03:38;18.20;44.10
62809;DHT22;48848;39.002;-94.584;2023-03-05T14:06:08;18.10;44.30
62809;DHT22;48848;39.002;-94.584;2023-03-05T14:08:34;18.10;44.60
62809;DHT22;48848;39.002;-94.584;2023-03-05T14:11:10;18.00;44.80
62809;DHT22;48848;39.002;-94.584;2023-03-05T14:13:36;17.90;44.90
62809;DHT22;48848;39.002;-94.584;2023-03-05T14:16:03;17.90;44.70
62809;DHT22;48848;39.002;-94.584;2023-03-05T14:18:29;17.90;44.80
62809;DHT22;48848;39.002;-94.584;2023-03-05T14:21:08;17.90;44.70
62809;DHT22;48848;39.002;-94.584;2023-03-05T14:26:37;19.60;43.60
62809;DHT22;48848;39.002;-94.584;2023-03-05T14:28:57;20.50;41.20
62809;DHT22;48848;39.002;-94.584;2023-03-05T14:31:25;19.90;40.40
62809;DHT22;48848;39.002;-94.584;2023-03-05T14:33:51;19.40;41.30
62809;DHT22;48848;39.002;-94.584;2023-03-05T14:36:22;19.00;42.20
62809;DHT22;48848;39.002;-94.584;2023-03-05T14:38:48;18.80;43.30
62809;DHT22;48848;39.002;-94.584;2023-03-05T14:41:47;18.60;43.40
62809;DHT22;48848;39.002;-94.584;2023-03-05T14:44:15;18.40;43.80
62809;DHT22;48848;39.002;-94.584;2023-03-05T14:46:42;18.20;44.40
62809;DHT22;48848;39.002;-94.584;2023-03-05T14:49:08;18.20;44.60
62809;DHT22;48848;39.002;-94.584;2023-03-05T14:51:37;18.00;44.80
62809;DHT22;48848;39.002;-94.584;2023-03-05T14:54:04;18.00;45.50
62809;DHT22;48848;39.002;-94.584;2023-03-05T14:56:30;18.00;45.70
62809;DHT22;48848;39.002;-94.584;2023-03-05T14:58:56;18.10;45.00
62809;DHT22;48848;39.002;-94.584;2023-03-05T15:01:22;18.10;45.00
62809;DHT22;48848;39.002;-94.584;2023-03-05T15:03:49;18.00;45.20
62809;DHT22;48848;39.002;-94.584;2023-03-05T15:08:44;17.90;45.20
62809;DHT22;48848;39.002;-94.584;2023-03-05T15:11:10;18.10;46.10
62809;DHT22;48848;39.002;-94.584;2023-03-05T15:13:36;19.20;44.90
62809;DHT22;48848;39.002;-94.584;2023-03-05T15:16:03;20.40;42.30
62809;DHT22;48848;39.002;-94.584;2023-03-05T15:18:29;20.20;40.90
62809;DHT22;48848;39.002;-94.584;2023-03-05T15:20:55;19.50;42.10
62809;DHT22;48848;39.002;-94.584;2023-03-05T15:23:21;19.20;43.00
62809;DHT22;48848;39.002;-94.584;2023-03-05T15:25:47;18.70;44.40
62809;DHT22;48848;39.002;-94.584;2023-03-05T15:28:13;18.50;44.90
62809;DHT22;48848;39.002;-94.584;2023-03-05T15:30:40;18.40;45.10
62809;DHT22;48848;39.002;-94.584;2023-03-05T15:33:08;18.20;45.60
62809;DHT22;48848;39.002;-94.584;2023-03-05T15:35:34;18.10;45.90
62809;DHT22;48848;39.002;-94.584;2023-03-05T15:38:00;18.10;46.10
62809;DHT22;48848;39.002;-94.584;2023-03-05T15:40:26;18.20;46.20
62809;DHT22;48848;39.002;-94.584;2023-03-05T15:42:53;18.10;46.50
62809;DHT22;48848;39.002;-94.584;2023-03-05T15:45:19;18.20;46.40
62809;DHT22;48848;39.002;-94.584;2023-03-05T15:47:48;18.10;46.40
62809;DHT22;48848;39.002;-94.584;2023-03-05T15:50:15;18.10;46.40
62809;DHT22;48848;39.002;-94.584;2023-03-05T15:52:41;18.20;46.60
62809;DHT22;48848;39.002;-94.584;2023-03-05T15:55:07;18.20;46.30
62809;DHT22;48848;39.002;-94.584;2023-03-05T15:57:37;18.10;46.70
62809;DHT22;48848;39.002;-94.584;2023-03-05T16:00:06;18.20;46.70
62809;DHT22;48848;39.002;-94.584;2023-03-05T16:02:32;18.30;46.60
62809;DHT22;48848;39.002;-94.584;2023-03-05T16:04:58;18.30;46.30
62809;DHT22;48848;39.002;-94.584;2023-03-05T16:07:24;18.30;46.40
62809;DHT22;48848;39.002;-94.584;2023-03-05T16:09:50;18.30;46.20